地図

経路データ

SID SEASON NUMBER BASIN SUBBASIN NAME ISO_TIME NATURE LAT LON WMO_WIND WMO_PRES WMO_AGENCY TRACK_TYPE DIST2LAND LANDFALL IFLAG USA_AGENCY USA_ATCF_ID USA_LAT USA_LON USA_RECORD USA_STATUS USA_WIND USA_PRES USA_SSHS USA_R34_NE USA_R34_SE USA_R34_SW USA_R34_NW USA_R50_NE USA_R50_SE USA_R50_SW USA_R50_NW USA_R64_NE USA_R64_SE USA_R64_SW USA_R64_NW USA_POCI USA_ROCI USA_RMW USA_EYE TOKYO_LAT TOKYO_LON TOKYO_GRADE TOKYO_WIND TOKYO_PRES TOKYO_R50_DIR TOKYO_R50_LONG TOKYO_R50_SHORT TOKYO_R30_DIR TOKYO_R30_LONG TOKYO_R30_SHORT TOKYO_LAND CMA_LAT CMA_LON CMA_CAT CMA_WIND CMA_PRES HKO_LAT HKO_LON HKO_CAT HKO_WIND HKO_PRES NEWDELHI_LAT NEWDELHI_LON NEWDELHI_GRADE NEWDELHI_WIND NEWDELHI_PRES NEWDELHI_CI NEWDELHI_DP NEWDELHI_POCI REUNION_LAT REUNION_LON REUNION_TYPE REUNION_WIND REUNION_PRES REUNION_TNUM REUNION_CI REUNION_RMW REUNION_R34_NE REUNION_R34_SE REUNION_R34_SW REUNION_R34_NW REUNION_R50_NE REUNION_R50_SE REUNION_R50_SW REUNION_R50_NW REUNION_R64_NE REUNION_R64_SE REUNION_R64_SW REUNION_R64_NW BOM_LAT BOM_LON BOM_TYPE BOM_WIND BOM_PRES BOM_TNUM BOM_CI BOM_RMW BOM_R34_NE BOM_R34_SE BOM_R34_SW BOM_R34_NW BOM_R50_NE BOM_R50_SE BOM_R50_SW BOM_R50_NW BOM_R64_NE BOM_R64_SE BOM_R64_SW BOM_R64_NW BOM_ROCI BOM_POCI BOM_EYE BOM_POS_METHOD BOM_PRES_METHOD NADI_LAT NADI_LON NADI_CAT NADI_WIND NADI_PRES WELLINGTON_LAT WELLINGTON_LON WELLINGTON_WIND WELLINGTON_PRES DS824_LAT DS824_LON DS824_STAGE DS824_WIND DS824_PRES TD9636_LAT TD9636_LON TD9636_STAGE TD9636_WIND TD9636_PRES TD9635_LAT TD9635_LON TD9635_WIND TD9635_PRES TD9635_ROCI NEUMANN_LAT NEUMANN_LON NEUMANN_CLASS NEUMANN_WIND NEUMANN_PRES MLC_LAT MLC_LON MLC_CLASS MLC_WIND MLC_PRES USA_GUST BOM_GUST BOM_GUST_PER REUNION_GUST REUNION_GUST_PER USA_SEAHGT USA_SEARAD_NE USA_SEARAD_SE USA_SEARAD_SW USA_SEARAD_NW STORM_SPEED STORM_DIR
1933312N12143 1933 74 WP MM NOT_NAMED 1933-11-08 10:00:00 NR 11.5000 143.200 main 1568 1568 __________O___ -1 11.5000 143.200 7 8 316
1933312N12143 1933 74 WP MM NOT_NAMED 1933-11-08 12:00:00 NR 11.6900 143.016 main 1581 1581 __________P___ -1 11.6900 143.016 7 8 316
1933312N12143 1933 74 WP MM NOT_NAMED 1933-11-08 15:00:00 NR 11.9724 142.740 main 1602 1602 __________P___ -1 11.9724 142.740 7 8 316
1933312N12143 1933 74 WP MM NOT_NAMED 1933-11-08 18:00:00 NR 12.2483 142.465 main 1617 1625 __________P___ -1 12.2483 142.465 7 8 315
1933312N12143 1933 74 WP MM NOT_NAMED 1933-11-08 21:00:00 NR 12.5142 142.191 main 1640 1640 __________P___ -1 12.5142 142.191 7 8 315
1933312N12143 1933 74 WP MM NOT_NAMED 1933-11-08 22:00:00 NR 12.6000 142.100 main 1648 1648 __________O___ -1 12.6000 142.100 7 7 314
1933312N12143 1933 74 WP MM NOT_NAMED 1933-11-09 00:00:00 NR 12.7670 141.919 main 1661 1657 __________P___ -1 12.7670 141.919 7 7 313
1933312N12143 1933 74 WP MM NOT_NAMED 1933-11-09 03:00:00 NR 13.0112 141.648 main 1669 1669 __________P___ -1 13.0112 141.648 7 7 313
1933312N12143 1933 74 WP MM NOT_NAMED 1933-11-09 06:00:00 NR 13.2561 141.374 main 1692 1686 __________P___ -1 13.2561 141.374 7 7 313
1933312N12143 1933 74 WP MM NOT_NAMED 1933-11-09 09:00:00 NR 13.5111 141.095 main 1686 1677 __________P___ -1 13.5111 141.095 7 8 313
1933312N12143 1933 74 WP MM NOT_NAMED 1933-11-09 10:00:00 NR 13.6000 141.000 main 1677 1657 __________O___ -1 13.6000 141.000 7 8 314
1933312N12143 1933 74 WP MM NOT_NAMED 1933-11-09 12:00:00 NR 13.7780 140.811 main 1659 1631 __________P___ -1 13.7780 140.811 7 8 315
1933312N12143 1933 74 WP MM NOT_NAMED 1933-11-09 15:00:00 NR 14.0574 140.521 main 1633 1605 __________P___ -1 14.0574 140.521 7 8 315
1933312N12143 1933 74 WP MM NOT_NAMED 1933-11-09 18:00:00 NR 14.3573 140.221 main 1608 1581 __________P___ -1 14.3573 140.221 7 9 317
1933312N12143 1933 74 WP MM NOT_NAMED 1933-11-09 21:00:00 NR 14.6841 139.908 main 1582 1573 __________P___ -1 14.6841 139.908 7 9 317
1933312N12143 1933 74 WP MM NOT_NAMED 1933-11-09 22:00:00 NR 14.8000 139.800 main 1573 1556 __________O___ -1 14.8000 139.800 3 10 318
1933312N12143 1933 74 WP MM NOT_NAMED 1933-11-10 00:00:00 NR 15.0386 139.575 main 1556 1522 __________P___ -1 15.0386 139.575 3 10 318
1933312N12143 1933 74 WP MM NOT_NAMED 1933-11-10 03:00:00 NR 15.4216 139.226 main 1522 1498 __________P___ -1 15.4216 139.226 3 10 319
1933312N12143 1933 74 WP MM NOT_NAMED 1933-11-10 06:00:00 NR 15.8291 138.869 main 1501 1471 __________P___ -1 15.8291 138.869 3 11 321
1933312N12143 1933 74 WP MM NOT_NAMED 1933-11-10 09:00:00 NR 16.2550 138.516 main 1474 1467 __________P___ -1 16.2550 138.516 3 11 322
1933312N12143 1933 74 WP MM NOT_NAMED 1933-11-10 10:00:00 NR 16.4000 138.400 main 1467 1453 __________O___ -1 16.4000 138.400 4 11 322
1933312N12143 1933 74 WP MM NOT_NAMED 1933-11-10 12:00:00 NR 16.6780 138.175 main 1457 1432 __________P___ -1 16.6780 138.175 4 11 323
1933312N12143 1933 74 WP MM NOT_NAMED 1933-11-10 15:00:00 NR 17.1074 137.843 main 1432 1419 __________P___ -1 17.1074 137.843 4 11 325
1933312N12143 1933 74 WP MM NOT_NAMED 1933-11-10 18:00:00 NR 17.5574 137.519 main 1423 1413 __________P___ -1 17.5574 137.519 4 11 327
1933312N12143 1933 74 WP MM NOT_NAMED 1933-11-10 21:00:00 NR 18.0341 137.203 main 1413 1409 __________P___ -1 18.0341 137.203 4 11 328
1933312N12143 1933 74 WP MM NOT_NAMED 1933-11-10 22:00:00 NR 18.2000 137.100 main 1414 1409 __________O___ -1 18.2000 137.100 4 12 329
1933312N12143 1933 74 WP MM NOT_NAMED 1933-11-11 00:00:00 NR 18.5491 136.874 main 1410 1405 __________P___ -1 18.5491 136.874 4 13 329
1933312N12143 1933 74 WP MM NOT_NAMED 1933-11-11 03:00:00 NR 19.0982 136.540 main 1407 1377 __________P___ -1 19.0982 136.540 4 13 331
1933312N12143 1933 74 WP MM NOT_NAMED 1933-11-11 06:00:00 NR 19.6609 136.232 main 1377 1317 __________P___ -1 19.6609 136.232 4 12 334
1933312N12143 1933 74 WP MM NOT_NAMED 1933-11-11 09:00:00 NR 20.2185 135.972 main 1317 1292 __________P___ -1 20.2185 135.972 4 12 337
1933312N12143 1933 74 WP MM NOT_NAMED 1933-11-11 10:00:00 NR 20.4000 135.900 main 1292 1254 __________O___ -1 20.4000 135.900 4 11 337
1933312N12143 1933 74 WP MM NOT_NAMED 1933-11-11 12:00:00 NR 20.7130 135.744 main 1254 1198 __________P___ -1 20.7130 135.744 4 10 338
1933312N12143 1933 74 WP MM NOT_NAMED 1933-11-11 15:00:00 NR 21.1694 135.559 main 1198 1153 __________P___ -1 21.1694 135.559 4 10 344
1933312N12143 1933 74 WP MM NOT_NAMED 1933-11-11 18:00:00 NR 21.6489 135.458 main 1153 1092 __________P___ -1 21.6489 135.458 4 10 355
1933312N12143 1933 74 WP MM NOT_NAMED 1933-11-11 21:00:00 NR 22.1954 135.467 main 1092 1071 __________P___ -1 22.1954 135.467 4 11 2
1933312N12143 1933 74 WP MM NOT_NAMED 1933-11-11 22:00:00 NR 22.4000 135.500 main 1071 1026 __________O___ -1 22.4000 135.500 4 14 9
1933312N12143 1933 74 WP MM NOT_NAMED 1933-11-12 00:00:00 NR 22.8775 135.585 main 1026 957 __________P___ -1 22.8775 135.585 4 16 13
1933312N12143 1933 74 WP MM NOT_NAMED 1933-11-12 03:00:00 NR 23.6700 135.820 main 957 897 __________P___ -1 23.6700 135.820 4 17 18
1933312N12143 1933 74 WP MM NOT_NAMED 1933-11-12 06:00:00 NR 24.5067 136.172 main 902 849 __________P___ -1 24.5067 136.172 4 18 24
1933312N12143 1933 74 WP MM NOT_NAMED 1933-11-12 09:00:00 NR 25.3350 136.628 main 849 834 __________P___ -1 25.3350 136.628 4 19 27
1933312N12143 1933 74 WP MM NOT_NAMED 1933-11-12 10:00:00 NR 25.6000 136.800 main 834 810 __________O___ -1 25.6000 136.800 4 18 32
1933312N12143 1933 74 WP MM NOT_NAMED 1933-11-12 12:00:00 NR 26.1054 137.172 main 817 761 __________P___ -1 26.1054 137.172 4 18 36
1933312N12143 1933 74 WP MM NOT_NAMED 1933-11-12 15:00:00 NR 26.8098 137.788 main 761 707 __________P___ -1 26.8098 137.788 4 18 40
1933312N12143 1933 74 WP MM NOT_NAMED 1933-11-12 18:00:00 NR 27.4665 138.458 main 707 669 __________P___ -1 27.4665 138.458 4 18 43
1933312N12143 1933 74 WP MM NOT_NAMED 1933-11-12 21:00:00 NR 28.0941 139.161 main 674 664 __________P___ -1 28.0941 139.161 4 18 45
1933312N12143 1933 74 WP MM NOT_NAMED 1933-11-12 22:00:00 NR 28.3000 139.400 main 664 __________O___ -1 28.3000 139.400 4 18 45

デジタル台風データ・検索

IBTrACS Databaseについて

本データベースは、米国NOAAが公開する1842年以降の世界の熱帯低気圧のベストトラックデータアーカイブInternational Best Track Archive for Climate Stewardship (IBTrACS)を、ウェブで閲覧しやすい形式に変換したものです。

最終更新日:2021-10-08